KAPN/APN METAR and TAF weather

Enter ICAO airport designator
Station Type Date Time Source
KAPN METAR 2019/02/23 23:23 UTC NOAA

KAPN 232323Z AUTO 11006KT 10SM SCT012 OVC065 M01/M03 A2999 RMK AO2 T10061028


Station Type Date Time Source
KAPN Decoded METAR 2019/02/23 23:23 UTC NOAA

ALPENA COUNTY REGIONAL AIRPORT, MI, United States (KAPN) 45-05N 083-34W 210M
Feb 23, 2019 - 06:23 PM EST / 2019.02.23 2323 UTC
Wind: from the ESE (110 degrees) at 7 MPH (6 KT):0
Visibility: 10 mile(s):0
Sky conditions: overcast
Temperature: 30.9 F (-0.6 C)
Windchill: 24 F (-4 C):1
Dew Point: 27.0 F (-2.8 C)
Relative Humidity: 85%
Pressure (altimeter): 29.99 in. Hg (1015 hPa)
ob: KAPN 232323Z AUTO 11006KT 10SM SCT012 OVC065 M01/M03 A2999 RMK AO2 T10061028
cycle: 23

Station Type Date Time Source
KAPN TAF 2019/02/23 18:46 UTC NOAA

TAF KAPN 231744Z 2318/2418 12010KT P6SM OVC080
FM232200 12010KT P6SM OVC045
FM240000 11013G21KT 4SM -RA BR OVC021 WS020/15040KT
FM240200 12013G21KT 5SM -RA BR OVC016 WS020/15035KT
FM240400 12014G22KT 4SM -RA BR OVC009 WS020/15035KT
FM240600 12015G24KT 1SM RA BR OVC005 WS015/15035KT
FM241200 20011KT 1 1/2SM -SHRA OVC005
FM241600 23015KT 3SM -SHRASN BR OVC012


Example: see airport list